sensor_id;sensor_type;location;lat;lon;timestamp;P1;durP1;ratioP1;P2;durP2;ratioP2
45476;SDS011;31958;51.756;-2.556;2022-12-18T00:01:29;13.40;;;7.32;;
45476;SDS011;31958;51.756;-2.556;2022-12-18T00:03:57;6.50;;;4.38;;
45476;SDS011;31958;51.756;-2.556;2022-12-18T00:06:23;16.42;;;6.05;;
45476;SDS011;31958;51.756;-2.556;2022-12-18T00:08:49;22.40;;;6.90;;
45476;SDS011;31958;51.756;-2.556;2022-12-18T00:11:16;17.10;;;5.68;;
45476;SDS011;31958;51.756;-2.556;2022-12-18T00:13:44;17.30;;;6.85;;
45476;SDS011;31958;51.756;-2.556;2022-12-18T00:16:11;18.50;;;6.68;;
45476;SDS011;31958;51.756;-2.556;2022-12-18T00:18:37;11.52;;;7.25;;
45476;SDS011;31958;51.756;-2.556;2022-12-18T00:21:04;12.40;;;7.05;;
45476;SDS011;31958;51.756;-2.556;2022-12-18T00:23:30;15.02;;;8.07;;
45476;SDS011;31958;51.756;-2.556;2022-12-18T00:25:59;10.02;;;6.50;;
45476;SDS011;31958;51.756;-2.556;2022-12-18T00:28:26;16.00;;;6.20;;
45476;SDS011;31958;51.756;-2.556;2022-12-18T00:30:58;21.35;;;6.82;;
45476;SDS011;31958;51.756;-2.556;2022-12-18T00:33:28;14.02;;;5.13;;
45476;SDS011;31958;51.756;-2.556;2022-12-18T00:35:53;7.78;;;5.30;;
45476;SDS011;31958;51.756;-2.556;2022-12-18T00:38:18;7.63;;;4.57;;
45476;SDS011;31958;51.756;-2.556;2022-12-18T00:40:44;8.05;;;5.40;;
45476;SDS011;31958;51.756;-2.556;2022-12-18T00:43:09;11.88;;;6.40;;
45476;SDS011;31958;51.756;-2.556;2022-12-18T00:45:35;9.88;;;4.70;;
45476;SDS011;31958;51.756;-2.556;2022-12-18T00:48:00;7.20;;;4.43;;
45476;SDS011;31958;51.756;-2.556;2022-12-18T00:50:25;7.15;;;3.85;;
45476;SDS011;31958;51.756;-2.556;2022-12-18T00:52:51;10.02;;;4.90;;
45476;SDS011;31958;51.756;-2.556;2022-12-18T00:55:17;10.32;;;4.65;;
45476;SDS011;31958;51.756;-2.556;2022-12-18T00:57:42;9.48;;;4.03;;
45476;SDS011;31958;51.756;-2.556;2022-12-18T01:00:10;11.68;;;5.45;;
45476;SDS011;31958;51.756;-2.556;2022-12-18T01:02:37;8.98;;;5.53;;
45476;SDS011;31958;51.756;-2.556;2022-12-18T01:05:02;9.10;;;4.88;;
45476;SDS011;31958;51.756;-2.556;2022-12-18T01:07:28;13.23;;;5.40;;
45476;SDS011;31958;51.756;-2.556;2022-12-18T01:09:54;14.10;;;5.05;;
45476;SDS011;31958;51.756;-2.556;2022-12-18T01:12:19;14.88;;;5.00;;
45476;SDS011;31958;51.756;-2.556;2022-12-18T01:14:44;11.35;;;5.32;;
45476;SDS011;31958;51.756;-2.556;2022-12-18T01:17:10;14.07;;;6.60;;
45476;SDS011;31958;51.756;-2.556;2022-12-18T01:19:35;8.25;;;5.03;;
45476;SDS011;31958;51.756;-2.556;2022-12-18T01:22:01;11.98;;;6.22;;
45476;SDS011;31958;51.756;-2.556;2022-12-18T01:24:26;7.72;;;5.10;;
45476;SDS011;31958;51.756;-2.556;2022-12-18T01:26:52;10.52;;;4.30;;
45476;SDS011;31958;51.756;-2.556;2022-12-18T01:29:17;8.82;;;3.35;;
45476;SDS011;31958;51.756;-2.556;2022-12-18T01:31:42;13.82;;;6.85;;
45476;SDS011;31958;51.756;-2.556;2022-12-18T01:34:08;13.52;;;6.47;;
45476;SDS011;31958;51.756;-2.556;2022-12-18T01:36:36;6.20;;;3.20;;
45476;SDS011;31958;51.756;-2.556;2022-12-18T01:39:05;7.30;;;3.63;;
45476;SDS011;31958;51.756;-2.556;2022-12-18T01:41:32;10.95;;;5.13;;
45476;SDS011;31958;51.756;-2.556;2022-12-18T01:50:17;8.38;;;4.35;;
45476;SDS011;31958;51.756;-2.556;2022-12-18T01:52:51;11.00;;;4.07;;
45476;SDS011;31958;51.756;-2.556;2022-12-18T01:55:39;12.02;;;5.43;;
45476;SDS011;31958;51.756;-2.556;2022-12-18T01:58:07;13.20;;;5.55;;
45476;SDS011;31958;51.756;-2.556;2022-12-18T02:00:32;12.23;;;4.47;;
45476;SDS011;31958;51.756;-2.556;2022-12-18T02:02:58;13.10;;;4.35;;
45476;SDS011;31958;51.756;-2.556;2022-12-18T02:05:35;9.00;;;5.05;;
45476;SDS011;31958;51.756;-2.556;2022-12-18T02:08:30;4.43;;;2.97;;
45476;SDS011;31958;51.756;-2.556;2022-12-18T02:18:52;8.13;;;3.33;;
45476;SDS011;31958;51.756;-2.556;2022-12-18T02:21:45;3.42;;;2.20;;
45476;SDS011;31958;51.756;-2.556;2022-12-18T02:26:59;8.80;;;3.92;;
45476;SDS011;31958;51.756;-2.556;2022-12-18T02:29:33;14.80;;;5.43;;
45476;SDS011;31958;51.756;-2.556;2022-12-18T02:32:02;10.10;;;5.78;;
45476;SDS011;31958;51.756;-2.556;2022-12-18T02:34:30;13.18;;;6.32;;
45476;SDS011;31958;51.756;-2.556;2022-12-18T02:36:57;12.02;;;6.63;;
45476;SDS011;31958;51.756;-2.556;2022-12-18T02:39:25;9.68;;;5.18;;
45476;SDS011;31958;51.756;-2.556;2022-12-18T02:41:51;9.70;;;5.63;;
45476;SDS011;31958;51.756;-2.556;2022-12-18T02:44:17;12.45;;;5.22;;
45476;SDS011;31958;51.756;-2.556;2022-12-18T02:46:43;6.18;;;4.10;;
45476;SDS011;31958;51.756;-2.556;2022-12-18T02:49:21;6.68;;;3.17;;
45476;SDS011;31958;51.756;-2.556;2022-12-18T02:51:53;4.40;;;3.13;;
45476;SDS011;31958;51.756;-2.556;2022-12-18T02:54:28;10.50;;;4.18;;
45476;SDS011;31958;51.756;-2.556;2022-12-18T02:57:40;11.18;;;4.35;;
45476;SDS011;31958;51.756;-2.556;2022-12-18T03:00:20;4.03;;;2.63;;
45476;SDS011;31958;51.756;-2.556;2022-12-18T03:02:49;12.40;;;4.47;;
45476;SDS011;31958;51.756;-2.556;2022-12-18T03:05:20;3.65;;;2.75;;
45476;SDS011;31958;51.756;-2.556;2022-12-18T03:08:05;8.32;;;2.55;;
45476;SDS011;31958;51.756;-2.556;2022-12-18T03:10:33;5.00;;;2.40;;
45476;SDS011;31958;51.756;-2.556;2022-12-18T03:13:03;9.15;;;3.90;;
45476;SDS011;31958;51.756;-2.556;2022-12-18T03:15:37;7.20;;;3.58;;
45476;SDS011;31958;51.756;-2.556;2022-12-18T03:18:06;7.07;;;3.83;;
45476;SDS011;31958;51.756;-2.556;2022-12-18T03:20:45;10.60;;;3.92;;
45476;SDS011;31958;51.756;-2.556;2022-12-18T03:23:14;8.43;;;3.50;;
45476;SDS011;31958;51.756;-2.556;2022-12-18T03:25:42;6.10;;;3.10;;
45476;SDS011;31958;51.756;-2.556;2022-12-18T03:28:10;7.45;;;3.30;;
45476;SDS011;31958;51.756;-2.556;2022-12-18T03:30:38;9.15;;;4.32;;
45476;SDS011;31958;51.756;-2.556;2022-12-18T03:35:39;8.52;;;3.70;;
45476;SDS011;31958;51.756;-2.556;2022-12-18T03:38:05;8.10;;;4.20;;
45476;SDS011;31958;51.756;-2.556;2022-12-18T03:40:35;6.45;;;3.58;;
45476;SDS011;31958;51.756;-2.556;2022-12-18T03:43:03;13.98;;;4.32;;
45476;SDS011;31958;51.756;-2.556;2022-12-18T03:45:36;4.25;;;2.90;;
45476;SDS011;31958;51.756;-2.556;2022-12-18T03:53:34;4.78;;;3.22;;
45476;SDS011;31958;51.756;-2.556;2022-12-18T03:56:02;6.20;;;3.67;;
45476;SDS011;31958;51.756;-2.556;2022-12-18T03:58:29;11.45;;;4.30;;
45476;SDS011;31958;51.756;-2.556;2022-12-18T04:00:58;7.07;;;3.95;;
45476;SDS011;31958;51.756;-2.556;2022-12-18T04:03:24;10.93;;;4.35;;
45476;SDS011;31958;51.756;-2.556;2022-12-18T04:05:51;10.65;;;3.20;;
45476;SDS011;31958;51.756;-2.556;2022-12-18T04:08:17;12.82;;;4.22;;
45476;SDS011;31958;51.756;-2.556;2022-12-18T04:10:43;9.13;;;4.00;;
45476;SDS011;31958;51.756;-2.556;2022-12-18T04:13:09;15.18;;;4.30;;
45476;SDS011;31958;51.756;-2.556;2022-12-18T04:15:35;9.13;;;3.97;;
45476;SDS011;31958;51.756;-2.556;2022-12-18T04:18:01;8.23;;;4.57;;
45476;SDS011;31958;51.756;-2.556;2022-12-18T04:20:27;15.43;;;6.25;;
45476;SDS011;31958;51.756;-2.556;2022-12-18T04:22:52;10.95;;;4.50;;
45476;SDS011;31958;51.756;-2.556;2022-12-18T04:25:18;11.38;;;5.00;;
45476;SDS011;31958;51.756;-2.556;2022-12-18T04:27:43;12.20;;;4.50;;
45476;SDS011;31958;51.756;-2.556;2022-12-18T04:30:09;6.75;;;4.05;;
45476;SDS011;31958;51.756;-2.556;2022-12-18T04:32:34;8.05;;;4.60;;
45476;SDS011;31958;51.756;-2.556;2022-12-18T04:35:00;14.63;;;5.40;;
45476;SDS011;31958;51.756;-2.556;2022-12-18T04:37:26;11.88;;;6.47;;
45476;SDS011;31958;51.756;-2.556;2022-12-18T04:39:51;12.25;;;5.88;;
45476;SDS011;31958;51.756;-2.556;2022-12-18T04:42:16;11.50;;;5.43;;
45476;SDS011;31958;51.756;-2.556;2022-12-18T04:44:42;10.95;;;4.15;;
45476;SDS011;31958;51.756;-2.556;2022-12-18T04:47:07;8.15;;;4.68;;
45476;SDS011;31958;51.756;-2.556;2022-12-18T04:49:32;11.48;;;3.53;;
45476;SDS011;31958;51.756;-2.556;2022-12-18T04:51:58;8.50;;;3.83;;
45476;SDS011;31958;51.756;-2.556;2022-12-18T04:54:23;8.35;;;4.32;;
45476;SDS011;31958;51.756;-2.556;2022-12-18T04:56:49;5.60;;;3.28;;
45476;SDS011;31958;51.756;-2.556;2022-12-18T04:59:14;7.60;;;3.67;;
45476;SDS011;31958;51.756;-2.556;2022-12-18T05:01:39;4.95;;;3.22;;
45476;SDS011;31958;51.756;-2.556;2022-12-18T05:04:05;12.82;;;4.10;;
45476;SDS011;31958;51.756;-2.556;2022-12-18T05:06:30;8.13;;;4.13;;
45476;SDS011;31958;51.756;-2.556;2022-12-18T05:08:55;5.85;;;3.55;;
45476;SDS011;31958;51.756;-2.556;2022-12-18T05:11:21;10.57;;;4.18;;
45476;SDS011;31958;51.756;-2.556;2022-12-18T05:13:46;8.75;;;4.07;;
45476;SDS011;31958;51.756;-2.556;2022-12-18T05:16:12;9.70;;;4.20;;
45476;SDS011;31958;51.756;-2.556;2022-12-18T05:18:38;11.48;;;4.28;;
45476;SDS011;31958;51.756;-2.556;2022-12-18T05:21:03;11.60;;;4.15;;
45476;SDS011;31958;51.756;-2.556;2022-12-18T05:23:29;8.75;;;3.85;;
45476;SDS011;31958;51.756;-2.556;2022-12-18T05:25:58;6.13;;;3.60;;
45476;SDS011;31958;51.756;-2.556;2022-12-18T05:28:29;8.00;;;4.07;;
45476;SDS011;31958;51.756;-2.556;2022-12-18T05:30:56;14.57;;;4.22;;
45476;SDS011;31958;51.756;-2.556;2022-12-18T05:33:24;9.98;;;4.47;;
45476;SDS011;31958;51.756;-2.556;2022-12-18T05:35:50;7.60;;;3.85;;
45476;SDS011;31958;51.756;-2.556;2022-12-18T05:38:20;7.65;;;4.03;;
45476;SDS011;31958;51.756;-2.556;2022-12-18T05:40:50;9.18;;;4.80;;
45476;SDS011;31958;51.756;-2.556;2022-12-18T05:43:15;8.82;;;3.80;;
45476;SDS011;31958;51.756;-2.556;2022-12-18T05:45:41;8.57;;;3.83;;
45476;SDS011;31958;51.756;-2.556;2022-12-18T05:48:07;10.48;;;3.53;;
45476;SDS011;31958;51.756;-2.556;2022-12-18T05:50:36;7.60;;;3.95;;
45476;SDS011;31958;51.756;-2.556;2022-12-18T05:53:03;7.32;;;3.80;;
45476;SDS011;31958;51.756;-2.556;2022-12-18T05:55:29;8.32;;;4.43;;
45476;SDS011;31958;51.756;-2.556;2022-12-18T05:57:58;6.95;;;3.75;;
45476;SDS011;31958;51.756;-2.556;2022-12-18T06:00:24;17.33;;;8.48;;
45476;SDS011;31958;51.756;-2.556;2022-12-18T06:02:50;7.32;;;3.97;;
45476;SDS011;31958;51.756;-2.556;2022-12-18T06:05:16;7.72;;;4.00;;
45476;SDS011;31958;51.756;-2.556;2022-12-18T06:07:41;10.55;;;4.68;;
45476;SDS011;31958;51.756;-2.556;2022-12-18T06:10:07;14.48;;;3.90;;
45476;SDS011;31958;51.756;-2.556;2022-12-18T06:12:32;11.13;;;4.70;;
45476;SDS011;31958;51.756;-2.556;2022-12-18T06:15:00;18.10;;;9.43;;
45476;SDS011;31958;51.756;-2.556;2022-12-18T06:17:29;12.07;;;6.93;;
45476;SDS011;31958;51.756;-2.556;2022-12-18T06:19:55;25.17;;;11.77;;
45476;SDS011;31958;51.756;-2.556;2022-12-18T06:22:20;8.68;;;5.63;;
45476;SDS011;31958;51.756;-2.556;2022-12-18T06:24:46;13.02;;;7.68;;
45476;SDS011;31958;51.756;-2.556;2022-12-18T06:27:11;8.57;;;3.75;;
45476;SDS011;31958;51.756;-2.556;2022-12-18T06:29:37;12.05;;;6.28;;
45476;SDS011;31958;51.756;-2.556;2022-12-18T06:32:02;23.90;;;14.15;;
45476;SDS011;31958;51.756;-2.556;2022-12-18T06:34:27;42.97;;;13.70;;
45476;SDS011;31958;51.756;-2.556;2022-12-18T06:36:56;22.48;;;10.68;;
45476;SDS011;31958;51.756;-2.556;2022-12-18T06:39:21;18.88;;;10.70;;
45476;SDS011;31958;51.756;-2.556;2022-12-18T06:41:46;30.75;;;12.90;;
45476;SDS011;31958;51.756;-2.556;2022-12-18T06:44:12;19.17;;;9.82;;
45476;SDS011;31958;51.756;-2.556;2022-12-18T06:46:37;26.48;;;10.57;;
45476;SDS011;31958;51.756;-2.556;2022-12-18T06:49:03;18.08;;;9.77;;
45476;SDS011;31958;51.756;-2.556;2022-12-18T06:51:28;21.23;;;10.52;;
45476;SDS011;31958;51.756;-2.556;2022-12-18T06:53:54;28.73;;;10.85;;
45476;SDS011;31958;51.756;-2.556;2022-12-18T06:56:19;26.75;;;10.70;;
45476;SDS011;31958;51.756;-2.556;2022-12-18T06:58:45;27.15;;;11.10;;
45476;SDS011;31958;51.756;-2.556;2022-12-18T07:01:10;23.65;;;9.90;;
45476;SDS011;31958;51.756;-2.556;2022-12-18T07:03:37;30.60;;;11.77;;
45476;SDS011;31958;51.756;-2.556;2022-12-18T07:06:04;31.70;;;10.45;;
45476;SDS011;31958;51.756;-2.556;2022-12-18T07:08:30;28.98;;;11.32;;
45476;SDS011;31958;51.756;-2.556;2022-12-18T07:10:55;31.85;;;12.43;;
45476;SDS011;31958;51.756;-2.556;2022-12-18T07:13:21;27.27;;;10.73;;
45476;SDS011;31958;51.756;-2.556;2022-12-18T07:15:46;24.63;;;9.90;;
45476;SDS011;31958;51.756;-2.556;2022-12-18T07:18:12;25.02;;;10.40;;
45476;SDS011;31958;51.756;-2.556;2022-12-18T07:20:37;25.60;;;8.73;;
45476;SDS011;31958;51.756;-2.556;2022-12-18T07:23:05;18.80;;;7.25;;
45476;SDS011;31958;51.756;-2.556;2022-12-18T07:25:37;25.15;;;9.68;;
45476;SDS011;31958;51.756;-2.556;2022-12-18T07:28:02;15.70;;;8.23;;
45476;SDS011;31958;51.756;-2.556;2022-12-18T07:30:28;18.75;;;8.10;;
45476;SDS011;31958;51.756;-2.556;2022-12-18T07:32:54;21.20;;;9.95;;
45476;SDS011;31958;51.756;-2.556;2022-12-18T07:35:19;23.27;;;8.15;;
45476;SDS011;31958;51.756;-2.556;2022-12-18T07:37:44;26.52;;;9.90;;
45476;SDS011;31958;51.756;-2.556;2022-12-18T07:40:10;17.45;;;7.55;;
45476;SDS011;31958;51.756;-2.556;2022-12-18T07:42:36;18.15;;;7.05;;
45476;SDS011;31958;51.756;-2.556;2022-12-18T07:45:02;23.98;;;8.35;;
45476;SDS011;31958;51.756;-2.556;2022-12-18T07:47:28;15.35;;;7.68;;
45476;SDS011;31958;51.756;-2.556;2022-12-18T07:49:53;26.08;;;9.38;;
45476;SDS011;31958;51.756;-2.556;2022-12-18T07:52:18;23.95;;;9.93;;
45476;SDS011;31958;51.756;-2.556;2022-12-18T07:54:44;13.57;;;6.55;;
45476;SDS011;31958;51.756;-2.556;2022-12-18T07:57:10;25.95;;;9.38;;
45476;SDS011;31958;51.756;-2.556;2022-12-18T07:59:36;15.93;;;5.68;;
45476;SDS011;31958;51.756;-2.556;2022-12-18T08:02:01;12.50;;;5.78;;
45476;SDS011;31958;51.756;-2.556;2022-12-18T08:04:27;12.90;;;5.72;;
45476;SDS011;31958;51.756;-2.556;2022-12-18T08:06:52;16.85;;;6.90;;
45476;SDS011;31958;51.756;-2.556;2022-12-18T08:09:18;21.42;;;8.55;;
45476;SDS011;31958;51.756;-2.556;2022-12-18T08:11:43;36.38;;;9.65;;
45476;SDS011;31958;51.756;-2.556;2022-12-18T08:14:09;26.70;;;9.32;;
45476;SDS011;31958;51.756;-2.556;2022-12-18T08:16:34;31.88;;;10.90;;
45476;SDS011;31958;51.756;-2.556;2022-12-18T08:19:00;43.97;;;19.50;;
45476;SDS011;31958;51.756;-2.556;2022-12-18T08:21:26;25.80;;;10.73;;
45476;SDS011;31958;51.756;-2.556;2022-12-18T08:23:53;30.30;;;12.98;;
45476;SDS011;31958;51.756;-2.556;2022-12-18T08:26:22;22.50;;;11.40;;
45476;SDS011;31958;51.756;-2.556;2022-12-18T08:28:48;18.58;;;8.13;;
45476;SDS011;31958;51.756;-2.556;2022-12-18T08:31:15;20.65;;;10.88;;
45476;SDS011;31958;51.756;-2.556;2022-12-18T08:33:40;19.63;;;9.98;;
45476;SDS011;31958;51.756;-2.556;2022-12-18T08:36:06;15.38;;;5.53;;
45476;SDS011;31958;51.756;-2.556;2022-12-18T08:38:32;23.02;;;10.02;;
45476;SDS011;31958;51.756;-2.556;2022-12-18T08:40:58;17.95;;;9.05;;
45476;SDS011;31958;51.756;-2.556;2022-12-18T08:43:25;21.60;;;10.10;;
45476;SDS011;31958;51.756;-2.556;2022-12-18T08:46:09;19.65;;;7.50;;
45476;SDS011;31958;51.756;-2.556;2022-12-18T08:48:34;22.45;;;10.75;;
45476;SDS011;31958;51.756;-2.556;2022-12-18T08:51:00;16.52;;;6.50;;
45476;SDS011;31958;51.756;-2.556;2022-12-18T08:53:26;22.73;;;9.07;;
45476;SDS011;31958;51.756;-2.556;2022-12-18T08:55:52;24.17;;;8.73;;
45476;SDS011;31958;51.756;-2.556;2022-12-18T08:58:18;24.65;;;9.00;;
45476;SDS011;31958;51.756;-2.556;2022-12-18T09:00:43;25.15;;;9.63;;
45476;SDS011;31958;51.756;-2.556;2022-12-18T09:03:12;15.50;;;6.78;;
45476;SDS011;31958;51.756;-2.556;2022-12-18T09:05:38;30.55;;;10.05;;
45476;SDS011;31958;51.756;-2.556;2022-12-18T09:08:03;23.63;;;8.27;;
45476;SDS011;31958;51.756;-2.556;2022-12-18T09:10:29;27.95;;;10.10;;
45476;SDS011;31958;51.756;-2.556;2022-12-18T09:12:54;18.98;;;7.82;;
45476;SDS011;31958;51.756;-2.556;2022-12-18T09:15:21;23.17;;;7.97;;
45476;SDS011;31958;51.756;-2.556;2022-12-18T09:17:47;19.58;;;8.05;;
45476;SDS011;31958;51.756;-2.556;2022-12-18T09:20:13;26.55;;;10.52;;
45476;SDS011;31958;51.756;-2.556;2022-12-18T09:22:38;24.60;;;10.68;;
45476;SDS011;31958;51.756;-2.556;2022-12-18T09:25:04;26.75;;;9.57;;
45476;SDS011;31958;51.756;-2.556;2022-12-18T09:27:32;21.27;;;9.38;;
45476;SDS011;31958;51.756;-2.556;2022-12-18T09:29:57;28.75;;;10.68;;
45476;SDS011;31958;51.756;-2.556;2022-12-18T09:32:23;22.00;;;9.88;;
45476;SDS011;31958;51.756;-2.556;2022-12-18T09:34:48;26.77;;;9.25;;
45476;SDS011;31958;51.756;-2.556;2022-12-18T09:37:14;26.75;;;10.32;;
45476;SDS011;31958;51.756;-2.556;2022-12-18T09:39:39;30.33;;;11.02;;
45476;SDS011;31958;51.756;-2.556;2022-12-18T09:42:04;16.38;;;8.32;;
45476;SDS011;31958;51.756;-2.556;2022-12-18T09:44:41;14.90;;;7.57;;
45476;SDS011;31958;51.756;-2.556;2022-12-18T09:47:10;23.48;;;9.18;;
45476;SDS011;31958;51.756;-2.556;2022-12-18T09:49:43;16.80;;;8.95;;
45476;SDS011;31958;51.756;-2.556;2022-12-18T09:52:30;17.60;;;7.97;;
45476;SDS011;31958;51.756;-2.556;2022-12-18T09:57:52;31.60;;;10.48;;
45476;SDS011;31958;51.756;-2.556;2022-12-18T10:00:24;22.42;;;9.80;;
45476;SDS011;31958;51.756;-2.556;2022-12-18T10:02:50;12.20;;;6.07;;
45476;SDS011;31958;51.756;-2.556;2022-12-18T10:05:20;18.80;;;6.93;;
45476;SDS011;31958;51.756;-2.556;2022-12-18T10:10:57;18.80;;;8.75;;
45476;SDS011;31958;51.756;-2.556;2022-12-18T10:13:44;19.02;;;10.18;;
45476;SDS011;31958;51.756;-2.556;2022-12-18T10:16:23;23.20;;;9.05;;
45476;SDS011;31958;51.756;-2.556;2022-12-18T10:19:02;22.33;;;10.90;;
45476;SDS011;31958;51.756;-2.556;2022-12-18T10:24:35;16.38;;;9.02;;
45476;SDS011;31958;51.756;-2.556;2022-12-18T10:27:11;13.43;;;6.07;;
45476;SDS011;31958;51.756;-2.556;2022-12-18T10:29:39;17.95;;;7.93;;
45476;SDS011;31958;51.756;-2.556;2022-12-18T10:32:06;14.55;;;7.20;;
45476;SDS011;31958;51.756;-2.556;2022-12-18T10:34:32;17.38;;;7.75;;
45476;SDS011;31958;51.756;-2.556;2022-12-18T10:36:57;20.90;;;8.55;;
45476;SDS011;31958;51.756;-2.556;2022-12-18T10:39:26;26.25;;;9.10;;
45476;SDS011;31958;51.756;-2.556;2022-12-18T10:41:51;16.25;;;5.97;;
45476;SDS011;31958;51.756;-2.556;2022-12-18T10:46:49;22.70;;;9.25;;
45476;SDS011;31958;51.756;-2.556;2022-12-18T10:49:23;25.95;;;8.82;;
45476;SDS011;31958;51.756;-2.556;2022-12-18T10:51:51;21.17;;;8.57;;
45476;SDS011;31958;51.756;-2.556;2022-12-18T10:54:23;15.05;;;8.98;;
45476;SDS011;31958;51.756;-2.556;2022-12-18T10:56:49;15.52;;;8.50;;
45476;SDS011;31958;51.756;-2.556;2022-12-18T10:59:15;16.58;;;8.60;;
45476;SDS011;31958;51.756;-2.556;2022-12-18T11:01:52;22.15;;;9.23;;
45476;SDS011;31958;51.756;-2.556;2022-12-18T11:04:24;18.20;;;8.40;;
45476;SDS011;31958;51.756;-2.556;2022-12-18T11:09:27;14.43;;;6.10;;
45476;SDS011;31958;51.756;-2.556;2022-12-18T11:11:58;22.80;;;9.18;;
45476;SDS011;31958;51.756;-2.556;2022-12-18T11:14:32;19.83;;;9.88;;
45476;SDS011;31958;51.756;-2.556;2022-12-18T11:20:19;18.95;;;8.02;;
45476;SDS011;31958;51.756;-2.556;2022-12-18T11:22:54;20.23;;;8.75;;
45476;SDS011;31958;51.756;-2.556;2022-12-18T11:25:22;19.80;;;8.07;;
45476;SDS011;31958;51.756;-2.556;2022-12-18T11:36:41;19.80;;;7.22;;
45476;SDS011;31958;51.756;-2.556;2022-12-18T11:39:51;19.98;;;8.50;;
45476;SDS011;31958;51.756;-2.556;2022-12-18T11:42:02;24.75;;;10.88;;
45476;SDS011;31958;51.756;-2.556;2022-12-18T11:44:57;16.88;;;9.05;;
45476;SDS011;31958;51.756;-2.556;2022-12-18T11:47:26;27.02;;;9.55;;
45476;SDS011;31958;51.756;-2.556;2022-12-18T11:49:56;19.42;;;9.30;;
45476;SDS011;31958;51.756;-2.556;2022-12-18T11:52:26;23.70;;;10.07;;
45476;SDS011;31958;51.756;-2.556;2022-12-18T11:54:56;24.55;;;11.18;;
45476;SDS011;31958;51.756;-2.556;2022-12-18T11:57:27;20.63;;;9.73;;
45476;SDS011;31958;51.756;-2.556;2022-12-18T12:11:28;19.55;;;9.98;;
45476;SDS011;31958;51.756;-2.556;2022-12-18T12:14:08;22.50;;;7.90;;
45476;SDS011;31958;51.756;-2.556;2022-12-18T12:25:02;20.25;;;9.50;;
45476;SDS011;31958;51.756;-2.556;2022-12-18T12:33:25;19.03;;;8.43;;
45476;SDS011;31958;51.756;-2.556;2022-12-18T12:35:57;22.85;;;10.50;;
45476;SDS011;31958;51.756;-2.556;2022-12-18T12:38:34;21.30;;;7.90;;
45476;SDS011;31958;51.756;-2.556;2022-12-18T12:41:21;14.88;;;7.10;;
45476;SDS011;31958;51.756;-2.556;2022-12-18T12:44:08;15.88;;;8.18;;
45476;SDS011;31958;51.756;-2.556;2022-12-18T12:46:39;17.02;;;8.07;;
45476;SDS011;31958;51.756;-2.556;2022-12-18T12:49:11;17.63;;;8.35;;
45476;SDS011;31958;51.756;-2.556;2022-12-18T12:51:40;32.97;;;12.68;;
45476;SDS011;31958;51.756;-2.556;2022-12-18T12:54:17;21.27;;;10.00;;
45476;SDS011;31958;51.756;-2.556;2022-12-18T12:56:48;24.02;;;13.98;;
45476;SDS011;31958;51.756;-2.556;2022-12-18T13:08:05;12.07;;;6.97;;
45476;SDS011;31958;51.756;-2.556;2022-12-18T13:13:10;22.02;;;6.70;;
45476;SDS011;31958;51.756;-2.556;2022-12-18T13:18:29;15.18;;;7.30;;
45476;SDS011;31958;51.756;-2.556;2022-12-18T13:25:48;7.10;;;4.15;;
45476;SDS011;31958;51.756;-2.556;2022-12-18T13:38:21;9.50;;;4.93;;
45476;SDS011;31958;51.756;-2.556;2022-12-18T13:40:56;13.27;;;6.55;;
45476;SDS011;31958;51.756;-2.556;2022-12-18T13:43:24;8.13;;;4.50;;
45476;SDS011;31958;51.756;-2.556;2022-12-18T13:51:39;8.18;;;4.10;;
45476;SDS011;31958;51.756;-2.556;2022-12-18T13:54:27;9.98;;;5.00;;
45476;SDS011;31958;51.756;-2.556;2022-12-18T13:56:55;9.88;;;4.90;;
45476;SDS011;31958;51.756;-2.556;2022-12-18T13:59:25;8.23;;;4.97;;
45476;SDS011;31958;51.756;-2.556;2022-12-18T14:01:59;15.10;;;6.18;;
45476;SDS011;31958;51.756;-2.556;2022-12-18T14:04:27;8.13;;;4.45;;
45476;SDS011;31958;51.756;-2.556;2022-12-18T14:09:51;8.07;;;5.53;;
45476;SDS011;31958;51.756;-2.556;2022-12-18T14:12:22;17.02;;;5.43;;
45476;SDS011;31958;51.756;-2.556;2022-12-18T14:15:31;14.73;;;5.45;;
45476;SDS011;31958;51.756;-2.556;2022-12-18T14:18:02;9.80;;;5.13;;
45476;SDS011;31958;51.756;-2.556;2022-12-18T14:20:29;14.00;;;8.07;;
45476;SDS011;31958;51.756;-2.556;2022-12-18T14:22:57;9.30;;;5.20;;
45476;SDS011;31958;51.756;-2.556;2022-12-18T14:25:27;7.47;;;4.20;;
45476;SDS011;31958;51.756;-2.556;2022-12-18T14:35:57;9.27;;;4.65;;
45476;SDS011;31958;51.756;-2.556;2022-12-18T14:40:59;16.70;;;6.15;;
45476;SDS011;31958;51.756;-2.556;2022-12-18T14:43:28;14.05;;;5.40;;
45476;SDS011;31958;51.756;-2.556;2022-12-18T14:45:56;11.80;;;5.95;;
45476;SDS011;31958;51.756;-2.556;2022-12-18T14:48:25;9.27;;;5.50;;
45476;SDS011;31958;51.756;-2.556;2022-12-18T14:51:01;9.80;;;3.85;;
45476;SDS011;31958;51.756;-2.556;2022-12-18T14:54:01;10.35;;;4.00;;
45476;SDS011;31958;51.756;-2.556;2022-12-18T14:56:34;7.10;;;3.50;;
45476;SDS011;31958;51.756;-2.556;2022-12-18T14:59:05;8.25;;;3.50;;
45476;SDS011;31958;51.756;-2.556;2022-12-18T15:02:25;4.78;;;3.10;;
45476;SDS011;31958;51.756;-2.556;2022-12-18T15:04:37;6.32;;;3.08;;
45476;SDS011;31958;51.756;-2.556;2022-12-18T15:09:35;5.93;;;3.33;;
45476;SDS011;31958;51.756;-2.556;2022-12-18T15:12:01;9.23;;;4.88;;
45476;SDS011;31958;51.756;-2.556;2022-12-18T15:16:55;8.48;;;3.25;;
45476;SDS011;31958;51.756;-2.556;2022-12-18T15:19:22;5.75;;;3.55;;
45476;SDS011;31958;51.756;-2.556;2022-12-18T15:21:53;7.00;;;4.07;;
45476;SDS011;31958;51.756;-2.556;2022-12-18T15:24:20;6.90;;;4.30;;
45476;SDS011;31958;51.756;-2.556;2022-12-18T15:26:49;10.75;;;5.55;;
45476;SDS011;31958;51.756;-2.556;2022-12-18T15:29:18;8.40;;;4.80;;
45476;SDS011;31958;51.756;-2.556;2022-12-18T15:31:57;8.60;;;4.93;;
45476;SDS011;31958;51.756;-2.556;2022-12-18T15:34:23;25.35;;;11.18;;
45476;SDS011;31958;51.756;-2.556;2022-12-18T15:36:50;33.10;;;13.57;;
45476;SDS011;31958;51.756;-2.556;2022-12-18T15:39:16;31.58;;;13.65;;
45476;SDS011;31958;51.756;-2.556;2022-12-18T15:41:41;23.50;;;13.95;;
45476;SDS011;31958;51.756;-2.556;2022-12-18T15:44:27;34.85;;;18.02;;
45476;SDS011;31958;51.756;-2.556;2022-12-18T15:46:52;36.17;;;16.92;;
45476;SDS011;31958;51.756;-2.556;2022-12-18T15:49:24;37.53;;;18.85;;
45476;SDS011;31958;51.756;-2.556;2022-12-18T15:51:51;43.78;;;21.15;;
45476;SDS011;31958;51.756;-2.556;2022-12-18T15:54:18;33.65;;;15.80;;
45476;SDS011;31958;51.756;-2.556;2022-12-18T15:57:04;20.45;;;10.40;;
45476;SDS011;31958;51.756;-2.556;2022-12-18T15:59:47;21.67;;;10.85;;
45476;SDS011;31958;51.756;-2.556;2022-12-18T16:02:14;23.35;;;10.30;;
45476;SDS011;31958;51.756;-2.556;2022-12-18T16:04:42;20.02;;;10.88;;
45476;SDS011;31958;51.756;-2.556;2022-12-18T16:07:07;28.00;;;13.05;;
45476;SDS011;31958;51.756;-2.556;2022-12-18T16:09:33;19.92;;;9.60;;
45476;SDS011;31958;51.756;-2.556;2022-12-18T16:11:59;19.73;;;10.48;;
45476;SDS011;31958;51.756;-2.556;2022-12-18T16:14:25;14.82;;;7.20;;
45476;SDS011;31958;51.756;-2.556;2022-12-18T16:16:55;12.40;;;6.20;;
45476;SDS011;31958;51.756;-2.556;2022-12-18T16:19:25;12.07;;;4.80;;
45476;SDS011;31958;51.756;-2.556;2022-12-18T16:21:52;7.97;;;4.50;;
45476;SDS011;31958;51.756;-2.556;2022-12-18T16:24:18;4.75;;;3.03;;
45476;SDS011;31958;51.756;-2.556;2022-12-18T16:26:47;9.60;;;5.13;;
45476;SDS011;31958;51.756;-2.556;2022-12-18T16:29:12;14.30;;;6.22;;
45476;SDS011;31958;51.756;-2.556;2022-12-18T16:31:38;11.20;;;5.43;;
45476;SDS011;31958;51.756;-2.556;2022-12-18T16:36:40;12.15;;;6.38;;
45476;SDS011;31958;51.756;-2.556;2022-12-18T16:39:05;12.77;;;6.20;;
45476;SDS011;31958;51.756;-2.556;2022-12-18T16:41:31;10.68;;;5.28;;
45476;SDS011;31958;51.756;-2.556;2022-12-18T16:43:57;7.18;;;3.97;;
45476;SDS011;31958;51.756;-2.556;2022-12-18T16:46:23;6.32;;;3.90;;